createdAt,value
2023-03-02T00:04:33.168Z,57.93
2023-03-02T00:09:36.951Z,48.67
2023-03-02T00:14:41.206Z,53.27
2023-03-02T00:19:44.848Z,45.90
2023-03-02T00:24:47.803Z,42.17
2023-03-02T00:29:52.554Z,41.70
2023-03-02T00:34:55.447Z,40.40
2023-03-02T00:39:58.339Z,41.53
2023-03-02T00:45:02.740Z,37.20
2023-03-02T00:50:07.683Z,40.90
2023-03-02T00:55:11.147Z,41.90
2023-03-02T01:00:16.670Z,52.27
2023-03-02T01:05:22.999Z,38.53
2023-03-02T01:10:26.003Z,47.03
2023-03-02T01:15:30.534Z,38.40
2023-03-02T01:20:34.191Z,42.17
2023-03-02T01:25:39.025Z,40.33
2023-03-02T01:30:43.430Z,45.10
2023-03-02T01:35:47.377Z,43.13
2023-03-02T01:40:50.388Z,39.67
2023-03-02T01:45:57.377Z,41.53
2023-03-02T01:51:15.903Z,36.30
2023-03-02T01:56:22.990Z,38.80
2023-03-02T02:01:28.119Z,38.90
2023-03-02T02:06:35.992Z,45.93
2023-03-02T02:11:39.129Z,42.67
2023-03-02T02:16:43.549Z,39.73
2023-03-02T02:21:46.719Z,37.87
2023-03-02T02:26:53.693Z,41.33
2023-03-02T02:32:02.353Z,33.37
2023-03-02T02:37:09.097Z,36.57
2023-03-02T02:42:17.350Z,37.73
2023-03-02T02:47:22.764Z,35.50
2023-03-02T02:52:29.179Z,41.60
2023-03-02T02:57:33.599Z,36.60
2023-03-02T03:02:45.493Z,34.33
2023-03-02T03:07:48.549Z,36.80
2023-03-02T03:12:54.162Z,32.80
2023-03-02T03:17:58.551Z,35.73
2023-03-02T03:23:03.226Z,35.80
2023-03-02T03:28:09.012Z,44.67
2023-03-02T03:33:12.245Z,35.23
2023-03-02T03:38:16.136Z,37.47
2023-03-02T03:43:22.820Z,32.50
2023-03-02T03:48:29.257Z,37.80
2023-03-02T03:53:32.550Z,32.60
2023-03-02T03:58:37.799Z,39.93
2023-03-02T04:03:42.267Z,40.53
2023-03-02T04:08:45.623Z,33.23
2023-03-02T04:13:50.208Z,33.30
2023-03-02T04:18:53.261Z,35.00
2023-03-02T04:23:56.284Z,39.10
2023-03-02T04:29:01.549Z,37.03
2023-03-02T04:34:05.175Z,38.97
2023-03-02T04:39:11.446Z,34.70
2023-03-02T04:44:17.157Z,40.23
2023-03-02T04:49:21.041Z,35.90
2023-03-02T04:54:27.001Z,34.03
2023-03-02T04:59:31.279Z,39.37
2023-03-02T05:04:34.754Z,37.47
2023-03-02T05:09:37.704Z,39.27
2023-03-02T05:14:43.415Z,34.43
2023-03-02T05:19:47.175Z,36.93
2023-03-02T05:24:50.046Z,38.77
2023-03-02T05:29:54.386Z,36.97
2023-03-02T05:34:57.278Z,37.63
2023-03-02T05:40:00.295Z,34.63
2023-03-02T05:45:04.905Z,38.90
2023-03-02T05:50:08.941Z,39.07
2023-03-02T05:55:12.297Z,37.13
2023-03-02T06:00:18.158Z,40.53
2023-03-02T06:05:22.742Z,37.20
2023-03-02T06:10:26.431Z,36.97
2023-03-02T06:15:31.258Z,36.53
2023-03-02T06:20:34.235Z,40.13
2023-03-02T06:25:41.331Z,41.00
2023-03-02T06:30:45.782Z,42.17
2023-03-02T06:35:50.453Z,35.77
2023-03-02T06:40:53.502Z,35.10
2023-03-02T06:45:58.190Z,40.77
2023-03-02T06:51:01.209Z,40.93
2023-03-02T06:56:04.190Z,37.03
2023-03-02T07:01:08.940Z,39.80
2023-03-02T07:06:13.538Z,46.87
2023-03-02T07:11:16.511Z,40.17
2023-03-02T07:16:20.775Z,46.13
2023-03-02T07:21:23.840Z,39.80
2023-03-02T07:26:26.769Z,43.53
2023-03-02T07:31:32.481Z,38.10
2023-03-02T07:36:35.569Z,39.20
2023-03-02T07:41:38.472Z,50.87
2023-03-02T07:46:42.740Z,50.00
2023-03-02T07:51:45.666Z,50.13
2023-03-02T07:56:48.639Z,51.23
2023-03-02T08:01:53.009Z,64.87
2023-03-02T08:06:56.002Z,58.80
2023-03-02T08:11:59.043Z,57.20
2023-03-02T08:17:03.389Z,59.50
2023-03-02T08:22:06.330Z,53.40
2023-03-02T08:27:09.915Z,65.57
2023-03-02T08:32:14.362Z,65.33
2023-03-02T08:37:17.347Z,65.83
2023-03-02T08:42:20.256Z,58.80
2023-03-02T08:47:24.527Z,65.23
2023-03-02T08:52:27.479Z,57.90
2023-03-02T08:57:30.392Z,59.27
2023-03-02T09:02:34.642Z,54.00
2023-03-02T09:07:37.547Z,39.73
2023-03-02T09:12:40.483Z,51.00
2023-03-02T09:17:44.826Z,46.23
2023-03-02T09:22:50.841Z,41.10
2023-03-02T09:27:53.773Z,43.23
2023-03-02T09:32:58.322Z,40.60
2023-03-02T09:38:01.389Z,44.70
2023-03-02T09:43:26.767Z,51.10
2023-03-02T09:48:39.606Z,38.37
2023-03-02T09:53:48.607Z,36.57
2023-03-02T09:58:57.102Z,32.70
2023-03-02T10:04:10.560Z,35.47
2023-03-02T10:09:13.643Z,35.50
2023-03-02T10:14:21.735Z,38.00
2023-03-02T10:19:32.408Z,34.27
2023-03-02T10:24:41.003Z,33.50
2023-03-02T10:29:55.490Z,31.33
2023-03-02T10:35:02.765Z,39.17
2023-03-02T10:40:06.358Z,35.60
2023-03-02T10:45:25.021Z,34.20
2023-03-02T10:50:30.621Z,35.30
2023-03-02T10:55:34.923Z,30.43
2023-03-02T11:00:37.934Z,30.27
2023-03-02T11:05:44.425Z,29.63
2023-03-02T11:10:56.797Z,26.37
2023-03-02T11:16:05.199Z,22.10
2023-03-02T11:21:12.678Z,22.10
2023-03-02T11:26:21.909Z,22.53
2023-03-02T11:31:31.307Z,26.20
2023-03-02T11:36:44.379Z,23.60
2023-03-02T11:41:47.343Z,18.33
2023-03-02T11:47:00.879Z,19.40
2023-03-02T11:52:05.668Z,22.97
2023-03-02T11:57:19.271Z,21.43
2023-03-02T12:02:22.669Z,26.97
2023-03-02T12:07:28.253Z,18.07
2023-03-02T12:12:44.115Z,18.57
2023-03-02T12:17:47.089Z,19.33
2023-03-02T12:22:51.907Z,20.07
2023-03-02T12:27:56.330Z,18.90
2023-03-02T12:33:20.747Z,19.50
2023-03-02T12:38:33.938Z,20.77
2023-03-02T12:43:37.938Z,22.97
2023-03-02T12:48:45.541Z,19.20
2023-03-02T12:53:50.475Z,19.13
2023-03-02T12:58:54.581Z,21.27
2023-03-02T13:03:57.844Z,17.60
2023-03-02T13:09:02.361Z,19.50
2023-03-02T13:14:20.354Z,17.90
2023-03-02T13:19:24.282Z,18.60
2023-03-02T13:24:34.445Z,22.00
2023-03-02T13:29:37.371Z,19.00
2023-03-02T13:34:49.487Z,18.30
2023-03-02T13:39:58.378Z,25.57
2023-03-02T13:45:10.705Z,22.00
2023-03-02T13:50:19.206Z,21.10
2023-03-02T13:55:24.007Z,22.57
2023-03-02T14:00:31.922Z,26.60
2023-03-02T14:05:34.951Z,22.70
2023-03-02T14:10:41.196Z,24.20
2023-03-02T14:15:48.990Z,26.13
2023-03-02T14:20:52.002Z,28.27
2023-03-02T14:25:57.624Z,27.40
2023-03-02T14:31:00.581Z,26.87
2023-03-02T14:36:06.067Z,25.00
2023-03-02T14:41:14.362Z,32.53
2023-03-02T14:46:17.320Z,28.00
2023-03-02T14:51:25.122Z,25.40
2023-03-02T14:56:30.222Z,23.80
2023-03-02T15:01:33.428Z,26.30
2023-03-02T15:06:40.265Z,26.23
2023-03-02T15:11:44.701Z,25.93
2023-03-02T15:16:47.636Z,25.80
2023-03-02T15:21:52.780Z,31.07
2023-03-02T15:26:57.014Z,31.73
2023-03-02T15:31:59.989Z,26.70
2023-03-02T15:37:03.052Z,23.53
2023-03-02T15:42:07.947Z,24.10
2023-03-02T15:47:13.432Z,24.90
2023-03-02T15:52:16.661Z,26.20
2023-03-02T15:57:21.087Z,24.30
2023-03-02T16:02:24.053Z,31.83
2023-03-02T16:07:27.056Z,24.27
2023-03-02T16:12:31.407Z,28.10
2023-03-02T16:17:34.348Z,26.00
2023-03-02T16:22:37.323Z,28.63
2023-03-02T16:27:47.122Z,23.60
2023-03-02T16:32:50.075Z,22.43
2023-03-02T16:37:53.005Z,30.90
2023-03-02T16:42:57.291Z,24.20
2023-03-02T16:48:00.224Z,22.53
2023-03-02T16:53:03.810Z,26.43
2023-03-02T16:58:08.289Z,27.23
2023-03-02T17:03:11.195Z,26.10
2023-03-02T17:08:16.094Z,22.90
2023-03-02T17:13:20.479Z,36.33
2023-03-02T17:18:23.612Z,40.80
2023-03-02T17:23:27.573Z,33.97
2023-03-02T17:28:32.362Z,27.00
2023-03-02T17:33:35.406Z,29.23
2023-03-02T17:38:38.463Z,26.13
2023-03-02T17:43:43.726Z,26.90
2023-03-02T17:48:48.533Z,27.03
2023-03-02T17:53:53.156Z,27.10
2023-03-02T17:58:59.744Z,25.37
2023-03-02T18:04:02.731Z,25.57
2023-03-02T18:09:05.963Z,26.63
2023-03-02T18:14:10.716Z,24.60
2023-03-02T18:19:13.672Z,26.30
2023-03-02T18:24:16.612Z,27.30
2023-03-02T18:29:22.548Z,36.60
2023-03-02T18:34:25.491Z,37.27
2023-03-02T18:39:28.475Z,34.80
2023-03-02T18:44:32.797Z,36.80
2023-03-02T18:49:35.804Z,39.97
2023-03-02T18:54:39.297Z,33.17
2023-03-02T18:59:43.607Z,29.60
2023-03-02T19:04:46.560Z,28.40
2023-03-02T19:09:49.508Z,34.00
2023-03-02T19:14:55.054Z,40.17
2023-03-02T19:19:58.024Z,42.50
2023-03-02T19:25:00.926Z,44.93
2023-03-02T19:30:06.209Z,45.77
2023-03-02T19:35:14.638Z,42.00
2023-03-02T19:40:19.330Z,36.33
2023-03-02T19:45:27.366Z,37.57
2023-03-02T19:50:31.081Z,41.10
2023-03-02T19:55:34.876Z,37.93
2023-03-02T20:00:39.375Z,39.53
2023-03-02T20:05:42.398Z,35.33
2023-03-02T20:10:49.373Z,38.10
2023-03-02T20:15:53.756Z,39.03
2023-03-02T20:20:56.666Z,41.53
2023-03-02T20:25:59.584Z,42.23
2023-03-02T20:31:08.956Z,37.03
2023-03-02T20:36:13.272Z,37.57
2023-03-02T20:41:17.383Z,35.90
2023-03-02T20:46:25.431Z,35.50
2023-03-02T20:51:29.864Z,43.27
2023-03-02T20:56:32.789Z,37.37
2023-03-02T21:01:37.106Z,39.63
2023-03-02T21:06:40.226Z,42.77
2023-03-02T21:11:43.183Z,41.70
2023-03-02T21:16:47.767Z,40.13
2023-03-02T21:21:50.704Z,44.40
2023-03-02T21:26:55.543Z,53.03
2023-03-02T21:31:59.845Z,45.47
2023-03-02T21:37:02.737Z,46.40
2023-03-02T21:42:05.833Z,46.40
2023-03-02T21:47:10.136Z,45.40
2023-03-02T21:52:13.063Z,48.57
2023-03-02T21:57:16.226Z,48.23
2023-03-02T22:02:20.581Z,47.37
2023-03-02T22:07:23.551Z,44.43
2023-03-02T22:12:26.460Z,42.87
2023-03-02T22:17:30.921Z,42.43
2023-03-02T22:22:33.869Z,49.67
2023-03-02T22:27:36.750Z,51.50
2023-03-02T22:32:40.996Z,45.10
2023-03-02T22:37:43.910Z,41.77
2023-03-02T22:42:46.818Z,43.93
2023-03-02T22:47:52.535Z,50.07
2023-03-02T22:52:57.162Z,50.70
2023-03-02T22:58:00.051Z,55.00
2023-03-02T23:03:17.405Z,50.40
2023-03-02T23:08:23.390Z,51.13
2023-03-02T23:13:32.197Z,54.57
2023-03-02T23:18:37.023Z,46.70
2023-03-02T23:23:40.031Z,43.77
2023-03-02T23:28:42.920Z,47.57
2023-03-02T23:33:47.182Z,47.70
2023-03-02T23:38:50.949Z,53.27
2023-03-02T23:43:53.906Z,52.53
2023-03-02T23:48:58.196Z,63.53
2023-03-02T23:54:03.517Z,68.77
2023-03-02T23:59:07.483Z,61.23
